AirNav   Duncan Aviation - Near you to keep you flying
 
 589 users online  

WI24 Cardinal Ridge Airport
Mount Horeb, Wisconsin, USA

GOING TO MOUNT HOREB?


FAA INFORMATION EFFECTIVE 26 JANUARY 2023

Location

FAA Identifier: WI24
Lat/Long: 42-52-52.0000N 089-45-08.0000W
42-52.866667N 089-45.133333W
42.8811111,-89.7522222
(estimated)
Elevation: 1080 ft. / 329 m (estimated)
Variation: 01W ()
From city: 8 miles S of MT HOREB, WI
Time zone: UTC -6 (UTC -5 during Daylight Saving Time)
Zip code: 53572

Airport Operations

Airport use: Private use. Permission required prior to landing
Activation date: 12/2000
Control tower: no
ARTCC: CHICAGO CENTER
FSS: GREEN BAY FLIGHT SERVICE STATION
Attendance: UNATNDD
Segmented circle: no

Airport Communications

WX AWOS-3 at C29 (17 nm NE): 118.675 (608-833-1686)
WX AWOS-3 at EFT (17 nm SE): 118.375 (608-328-8359)

Nearby radio navigation aids

VOR radial/distance  VOR name  Freq  Var
MSNr226/24.0MADISON VORTAC108.6003E
JVLr301/34.5JANESVILLE VOR/DME114.3003E

Airport Services

Runway Information

Runway 3/21

Dimensions: 1370 x 75 ft. / 418 x 23 m
Surface: turf, in good condition
RUNWAY 3  RUNWAY 21
Traffic pattern: leftleft

Airport Ownership and Management from official FAA records

Ownership: Privately-owned
Owner: STEVEN MEASSICK
650 PERRY CENTER RD
MT HOREB, WI 53572
Phone 608-832-0578
Manager: STEVEN MEASSICK
650 PERRY CENTER RD
MT HOREB, WI 53572
Phone 608-832-0578

Airport Operational Statistics

Aircraft based on the field: 2
Single engine airplanes: 1
Ultralights: 1
    

Additional Remarks

FOR CD CTC CHICAGO ARTCC AT 630-906-8921.

Instrument Procedures

There are no published instrument procedures at WI24.

Some nearby airports with instrument procedures:

C29 - Middleton Municipal Airport - Morey Field (17 nm NE)
KEFT - Monroe Municipal Airport (17 nm SE)
KMRJ - Iowa County Airport (21 nm W)
KMSN - Dane County Regional Airport-Truax Field (24 nm NE)
91C - Sauk/Prairie Airport (25 nm N)
 
Loc | Ops | Rwys | IFR | FBO | Links
Com | Nav | Svcs | Stats | Notes
Area around WI24 (Cardinal Ridge Airport)
 
Road maps at: MapQuest Bing Google
 
Aerial photo
No photo
 
Sectional chart

 
Airport distance calculator
Flying to Cardinal Ridge Airport? Find the distance to fly.

From to WI24

Sunrise and sunset
Times for 09-Feb-2023
 Local
(UTC-6)
 Zulu
(UTC)
Morning civil twilight06:3612:36
Sunrise07:0513:05
Sunset17:2123:21
Evening civil twilight17:5123:51

Current date and time
Zulu (UTC)  09-Feb-2023 10:53:01
Local (UTC-6)  09-Feb-2023 04:53:01
 
METAR
KC29 
17nm NE 
091035Z AUTO 06006KT 7SM OVC050 02/00 A2977 RMK AO1 T00150000
KEFT 
18nm SE 
091035Z AUTO 05012KT 7SM -DZ OVC034 01/M01 A2971 RMK AO2 T00071006
KMSN 
23nm NE 
090953Z AUTO 05008KT 7SM UP OVC070 01/M02 A2979 RMK AO2 UPB25 PRESFR SLP096 P0000 T00111022
KLNR 
28nm NW 
090956Z AUTO 04005KT 10SM FEW070 OVC100 02/M03 A2980 RMK AO2 SLP089 T00221028
KPVB 
33nm W 
091015Z AUTO 05011KT 10SM OVC043 02/M02 A2973 RMK AO1 T00161020
TAF
KMSN 
23nm NE 
090928Z 0909/1006 04006KT P6SM -RASN OVC070 FM091100 04011KT 6SM -RASN BR OVC060 FM091500 03017G28KT 3/4SM -SN BR OVC009 FM092100 33016G28KT 1 1/2SM -SN BR OVC011 FM092300 31013G24KT P6SM VCSH OVC012
NOTAMs
Click for the latest NOTAMs
NOTAMs are issued by the DoD/FAA and will open in a separate window not controlled by AirNav.

 

 
 

Would you like to see your business listed on this page?

 If your business provides an interesting product or service to pilots, flight crews, aircraft, or users of the Cardinal Ridge Airport, you should consider listing it here.  To start the listing process, click on the button below
 
Add a business
 

Other Pages about Cardinal Ridge Airport

Update a link
 
Copyright © AirNav, LLC. All rights reserved. Privacy Policy  Contact